createdAt,value
2023-05-22T00:02:04.808Z,53.98
2023-05-22T00:04:37.635Z,53.71
2023-05-22T00:07:11.796Z,53.89
2023-05-22T00:09:44.875Z,54.09
2023-05-22T00:12:18.110Z,54.22
2023-05-22T00:14:51.104Z,54.26
2023-05-22T00:17:25.192Z,54.01
2023-05-22T00:20:08.362Z,54.14
2023-05-22T00:22:43.205Z,54.16
2023-05-22T00:25:19.440Z,54.08
2023-05-22T00:27:53.389Z,54.04
2023-05-22T00:30:26.178Z,54.29
2023-05-22T00:32:59.014Z,54.62
2023-05-22T00:35:31.809Z,54.53
2023-05-22T00:38:06.751Z,54.42
2023-05-22T00:40:39.848Z,54.85
2023-05-22T00:43:13.414Z,54.52
2023-05-22T00:45:47.693Z,53.99
2023-05-22T00:48:21.183Z,54.46
2023-05-22T00:50:55.694Z,54.47
2023-05-22T00:53:31.609Z,54.37
2023-05-22T00:56:05.276Z,54.54
2023-05-22T00:58:38.037Z,54.39
2023-05-22T01:01:12.121Z,54.29
2023-05-22T01:03:46.972Z,54.01
2023-05-22T01:06:21.587Z,54.04
2023-05-22T01:08:55.963Z,54.04
2023-05-22T01:11:36.368Z,53.99
2023-05-22T01:14:19.272Z,54.14
2023-05-22T01:16:56.169Z,53.96
2023-05-22T01:19:53.908Z,54.27
2023-05-22T01:22:40.844Z,54.01
2023-05-22T01:25:29.024Z,54.06
2023-05-22T01:28:19.558Z,54.45
2023-05-22T01:31:02.913Z,54.49
2023-05-22T01:33:40.683Z,54.92
2023-05-22T01:36:20.137Z,54.83
2023-05-22T01:38:54.451Z,54.53
2023-05-22T01:41:28.680Z,54.70
2023-05-22T01:44:02.067Z,54.57
2023-05-22T01:46:36.575Z,54.43
2023-05-22T01:49:11.261Z,54.37
2023-05-22T01:51:52.686Z,54.31
2023-05-22T01:54:31.840Z,54.58
2023-05-22T01:57:09.076Z,54.00
2023-05-22T01:59:48.581Z,53.87
2023-05-22T02:02:25.700Z,54.25
2023-05-22T02:05:01.828Z,54.28
2023-05-22T02:07:38.691Z,54.51
2023-05-22T02:10:14.384Z,54.18
2023-05-22T02:12:47.456Z,54.57
2023-05-22T02:15:21.786Z,54.25
2023-05-22T02:17:57.102Z,54.73
2023-05-22T02:20:30.686Z,54.66
2023-05-22T02:23:03.806Z,54.70
2023-05-22T02:25:37.070Z,54.59
2023-05-22T02:28:10.059Z,54.79
2023-05-22T02:30:42.798Z,54.76
2023-05-22T02:33:17.938Z,54.73
2023-05-22T02:35:50.972Z,54.87
2023-05-22T02:38:24.168Z,54.38
2023-05-22T02:40:57.188Z,54.62
2023-05-22T02:43:29.918Z,54.55
2023-05-22T02:46:03.095Z,54.70
2023-05-22T02:48:37.382Z,54.83
2023-05-22T02:51:10.241Z,54.87
2023-05-22T02:53:43.172Z,54.47
2023-05-22T02:56:16.088Z,54.67
2023-05-22T02:58:48.864Z,54.80
2023-05-22T03:01:22.213Z,54.71
2023-05-22T03:03:57.540Z,54.54
2023-05-22T03:06:30.686Z,54.75
2023-05-22T03:09:04.428Z,54.79
2023-05-22T03:11:37.379Z,54.89
2023-05-22T03:14:10.367Z,54.74
2023-05-22T03:16:43.407Z,54.83
2023-05-22T03:19:18.371Z,54.96
2023-05-22T03:21:51.438Z,54.86
2023-05-22T03:24:24.085Z,55.01
2023-05-22T03:26:57.013Z,55.03
2023-05-22T03:29:39.157Z,54.87
2023-05-22T03:32:11.974Z,54.96
2023-05-22T03:34:46.140Z,54.86
2023-05-22T03:37:19.135Z,54.95
2023-05-22T03:39:52.429Z,55.08
2023-05-22T03:42:32.650Z,54.78
2023-05-22T03:45:07.957Z,54.94
2023-05-22T03:47:40.933Z,55.00
2023-05-22T03:50:16.010Z,55.40
2023-05-22T03:52:48.954Z,55.25
2023-05-22T03:55:24.091Z,55.24
2023-05-22T03:57:57.606Z,55.14
2023-05-22T04:00:31.804Z,55.15
2023-05-22T04:03:04.856Z,55.27
2023-05-22T04:05:39.126Z,55.20
2023-05-22T04:08:11.991Z,55.25
2023-05-22T04:10:46.655Z,55.38
2023-05-22T04:13:20.048Z,55.28
2023-05-22T04:15:53.770Z,55.55
2023-05-22T04:18:27.219Z,55.58
2023-05-22T04:21:02.790Z,55.50
2023-05-22T04:23:36.109Z,56.35
2023-05-22T04:26:10.597Z,55.85
2023-05-22T04:28:49.256Z,55.71
2023-05-22T04:31:23.109Z,55.56
2023-05-22T04:33:56.598Z,55.55
2023-05-22T04:36:31.201Z,55.68
2023-05-22T04:39:04.597Z,55.47
2023-05-22T04:41:39.631Z,55.58
2023-05-22T04:44:12.723Z,55.50
2023-05-22T04:46:45.784Z,56.18
2023-05-22T04:49:19.176Z,55.26
2023-05-22T04:51:55.637Z,55.58
2023-05-22T04:54:39.206Z,58.23
2023-05-22T04:57:12.085Z,56.07
2023-05-22T04:59:49.135Z,55.61
2023-05-22T05:02:22.489Z,55.88
2023-05-22T05:04:56.165Z,55.64
2023-05-22T05:07:30.539Z,55.50
2023-05-22T05:10:03.496Z,55.68
2023-05-22T05:12:36.251Z,55.50
2023-05-22T05:15:10.247Z,55.27
2023-05-22T05:17:43.338Z,55.17
2023-05-22T05:20:16.080Z,55.52
2023-05-22T05:22:51.235Z,55.16
2023-05-22T05:25:25.277Z,55.28
2023-05-22T05:27:58.260Z,55.13
2023-05-22T05:30:32.036Z,55.16
2023-05-22T05:33:23.659Z,55.06
2023-05-22T05:36:19.533Z,55.39
2023-05-22T05:38:54.366Z,55.15
2023-05-22T05:41:28.023Z,55.14
2023-05-22T05:44:07.825Z,55.20
2023-05-22T05:46:42.020Z,55.38
2023-05-22T05:49:15.052Z,55.18
2023-05-22T05:51:48.856Z,55.02
2023-05-22T05:54:26.245Z,54.95
2023-05-22T05:57:01.753Z,55.01
2023-05-22T05:59:35.198Z,54.95
2023-05-22T06:02:40.507Z,55.38
2023-05-22T06:05:20.215Z,54.96
2023-05-22T06:08:00.121Z,54.52
2023-05-22T06:10:35.021Z,55.16
2023-05-22T06:13:18.004Z,54.91
2023-05-22T06:15:51.855Z,54.89
2023-05-22T06:18:25.626Z,54.39
2023-05-22T06:20:59.381Z,54.12
2023-05-22T06:23:32.479Z,54.72
2023-05-22T06:26:06.709Z,53.96
2023-05-22T06:28:41.198Z,54.17
2023-05-22T06:31:14.368Z,53.93
2023-05-22T06:33:50.479Z,53.64
2023-05-22T06:36:23.693Z,52.98
2023-05-22T06:38:57.460Z,54.04
2023-05-22T06:41:50.497Z,53.49
2023-05-22T06:44:25.684Z,53.39
2023-05-22T06:47:01.350Z,53.40
2023-05-22T06:49:35.939Z,54.13
2023-05-22T06:52:10.092Z,53.12
2023-05-22T06:54:44.540Z,52.73
2023-05-22T06:57:24.001Z,52.73
2023-05-22T06:59:57.804Z,53.03
2023-05-22T07:02:49.705Z,52.94
2023-05-22T07:05:38.674Z,53.27
2023-05-22T07:08:12.235Z,52.31
2023-05-22T07:10:45.297Z,52.98
2023-05-22T07:13:21.951Z,52.88
2023-05-22T07:15:54.914Z,53.41
2023-05-22T07:18:27.956Z,53.98
2023-05-22T07:21:00.711Z,53.82
2023-05-22T07:23:34.300Z,53.78
2023-05-22T07:26:07.711Z,54.38
2023-05-22T07:28:45.959Z,53.49
2023-05-22T07:31:20.429Z,54.71
2023-05-22T07:33:54.448Z,54.84
2023-05-22T07:36:27.263Z,55.23
2023-05-22T07:39:00.041Z,55.77
2023-05-22T07:41:32.796Z,55.94
2023-05-22T07:44:07.551Z,56.04
2023-05-22T07:46:43.296Z,55.78
2023-05-22T07:49:22.066Z,54.14
2023-05-22T07:51:56.002Z,54.70
2023-05-22T07:54:31.498Z,56.10
2023-05-22T07:57:04.622Z,53.94
2023-05-22T07:59:44.221Z,53.19
2023-05-22T08:02:17.337Z,54.92
2023-05-22T08:04:50.545Z,54.12
2023-05-22T08:07:23.553Z,52.15
2023-05-22T08:09:56.642Z,51.99
2023-05-22T08:12:29.423Z,52.55
2023-05-22T08:15:03.780Z,54.60
2023-05-22T08:17:36.631Z,53.28
2023-05-22T08:20:10.378Z,50.99
2023-05-22T08:22:43.501Z,53.58
2023-05-22T08:25:16.519Z,54.61
2023-05-22T08:27:49.453Z,54.83
2023-05-22T08:30:23.491Z,52.65
2023-05-22T08:32:56.431Z,53.72
2023-05-22T08:35:29.079Z,52.62
2023-05-22T08:38:01.867Z,53.44
2023-05-22T08:40:36.530Z,51.94
2023-05-22T08:43:09.548Z,51.35
2023-05-22T08:45:44.316Z,52.81
2023-05-22T08:48:19.618Z,53.30
2023-05-22T08:50:57.453Z,52.92
2023-05-22T08:53:32.065Z,53.23
2023-05-22T08:56:07.209Z,51.42
2023-05-22T08:58:40.129Z,49.68
2023-05-22T09:01:16.224Z,52.25
2023-05-22T09:03:51.343Z,50.08
2023-05-22T09:06:24.422Z,50.19
2023-05-22T09:08:57.748Z,49.39
2023-05-22T09:11:30.570Z,49.34
2023-05-22T09:14:10.398Z,52.40
2023-05-22T09:16:49.825Z,51.97
2023-05-22T09:19:23.207Z,49.79
2023-05-22T09:22:03.314Z,51.43
2023-05-22T09:24:40.057Z,48.96
2023-05-22T09:27:13.255Z,50.18
2023-05-22T09:29:52.081Z,49.60
2023-05-22T09:32:30.212Z,49.90
2023-05-22T09:35:05.245Z,48.33
2023-05-22T09:37:38.918Z,50.18
2023-05-22T09:40:14.173Z,48.75
2023-05-22T09:42:47.149Z,48.40
2023-05-22T09:45:24.201Z,48.07
2023-05-22T09:47:58.483Z,48.46
2023-05-22T09:50:31.539Z,47.38
2023-05-22T09:53:05.978Z,46.56
2023-05-22T09:55:40.171Z,48.09
2023-05-22T09:58:17.985Z,47.10
2023-05-22T10:00:51.998Z,48.13
2023-05-22T10:03:27.851Z,47.86
2023-05-22T10:06:02.142Z,47.59
2023-05-22T10:08:43.759Z,47.34
2023-05-22T10:11:17.279Z,47.75
2023-05-22T10:13:51.928Z,47.99
2023-05-22T10:16:26.068Z,47.03
2023-05-22T10:19:01.694Z,44.99
2023-05-22T10:21:37.112Z,46.55
2023-05-22T10:24:11.443Z,46.79
2023-05-22T10:26:45.416Z,46.33
2023-05-22T10:29:26.644Z,45.15
2023-05-22T10:32:05.904Z,45.92
2023-05-22T10:34:55.424Z,46.95
2023-05-22T10:37:43.619Z,46.30
2023-05-22T10:40:22.657Z,43.92
2023-05-22T10:43:00.625Z,46.29
2023-05-22T10:45:33.965Z,45.58
2023-05-22T10:48:08.160Z,45.23
2023-05-22T10:50:52.867Z,45.94
2023-05-22T10:53:28.014Z,44.91
2023-05-22T10:56:09.782Z,45.47
2023-05-22T10:58:45.506Z,44.57
2023-05-22T11:01:27.127Z,46.32
2023-05-22T11:04:12.975Z,44.62
2023-05-22T11:07:04.016Z,41.77
2023-05-22T11:09:43.393Z,43.25
2023-05-22T11:12:21.348Z,41.54
2023-05-22T11:14:56.426Z,42.18
2023-05-22T11:17:31.781Z,42.64
2023-05-22T11:20:06.289Z,43.72
2023-05-22T11:22:43.905Z,44.30
2023-05-22T11:25:18.478Z,44.56
2023-05-22T11:27:51.400Z,45.54
2023-05-22T11:30:27.813Z,42.05
2023-05-22T11:33:01.852Z,41.34
2023-05-22T11:35:35.628Z,44.26
2023-05-22T11:38:10.575Z,43.05
2023-05-22T11:40:43.639Z,42.21
2023-05-22T11:43:16.406Z,45.77
2023-05-22T11:45:49.304Z,42.47
2023-05-22T11:48:22.396Z,40.70
2023-05-22T11:50:55.356Z,41.48
2023-05-22T11:53:31.228Z,44.54
2023-05-22T11:56:05.311Z,41.01
2023-05-22T11:58:38.162Z,43.44
2023-05-22T12:01:10.936Z,40.68
2023-05-22T12:03:43.775Z,41.12
2023-05-22T12:06:18.407Z,41.17
2023-05-22T12:08:52.964Z,42.68
2023-05-22T12:11:27.286Z,41.01
2023-05-22T12:14:03.857Z,42.39
2023-05-22T12:16:38.050Z,42.35
2023-05-22T12:19:11.856Z,41.71
2023-05-22T12:21:46.178Z,41.86
2023-05-22T12:24:23.243Z,40.10
2023-05-22T12:26:57.606Z,40.94
2023-05-22T12:29:30.365Z,41.55
2023-05-22T12:32:04.296Z,41.32
2023-05-22T12:34:44.390Z,42.56
2023-05-22T12:37:21.233Z,40.74
2023-05-22T12:40:00.518Z,41.07
2023-05-22T12:42:33.404Z,40.63
2023-05-22T12:45:07.364Z,41.16
2023-05-22T12:47:40.323Z,41.30
2023-05-22T12:50:13.213Z,42.01
2023-05-22T12:52:46.205Z,41.52
2023-05-22T12:55:20.330Z,41.86
2023-05-22T12:57:53.315Z,40.80
2023-05-22T13:00:26.388Z,40.81
2023-05-22T13:02:59.413Z,40.18
2023-05-22T13:05:32.309Z,40.70
2023-05-22T13:08:06.013Z,40.61
2023-05-22T13:10:40.143Z,40.90
2023-05-22T13:13:13.015Z,41.90
2023-05-22T13:15:46.672Z,41.88
2023-05-22T13:18:19.802Z,42.02
2023-05-22T13:20:53.409Z,37.59
2023-05-22T13:23:26.270Z,41.04
2023-05-22T13:26:01.929Z,38.54
2023-05-22T13:28:34.781Z,39.56
2023-05-22T13:31:07.629Z,39.17
2023-05-22T13:33:40.634Z,39.71
2023-05-22T13:36:13.697Z,40.06
2023-05-22T13:38:46.670Z,39.18
2023-05-22T13:41:21.320Z,37.45
2023-05-22T13:43:55.216Z,37.10
2023-05-22T13:46:28.184Z,37.46
2023-05-22T13:49:01.178Z,37.82
2023-05-22T13:51:33.978Z,36.72
2023-05-22T13:54:07.016Z,39.08
2023-05-22T13:56:41.560Z,36.61
2023-05-22T13:59:14.457Z,37.88
2023-05-22T14:01:48.008Z,38.11
2023-05-22T14:04:21.446Z,35.79
2023-05-22T14:06:54.740Z,38.72
2023-05-22T14:09:28.234Z,36.09
2023-05-22T14:12:02.650Z,38.06
2023-05-22T14:14:35.708Z,37.47
2023-05-22T14:17:09.794Z,37.58
2023-05-22T14:19:42.604Z,37.70
2023-05-22T14:22:15.363Z,37.16
2023-05-22T14:24:48.808Z,36.85
2023-05-22T14:27:23.148Z,37.92
2023-05-22T14:29:56.004Z,36.80
2023-05-22T14:32:29.142Z,37.42
2023-05-22T14:35:02.023Z,37.36
2023-05-22T14:37:34.778Z,37.11
2023-05-22T14:40:09.312Z,36.53
2023-05-22T14:42:43.493Z,37.19
2023-05-22T14:45:16.455Z,37.37
2023-05-22T14:47:49.262Z,35.70
2023-05-22T14:50:22.885Z,37.17
2023-05-22T14:52:55.857Z,36.27
2023-05-22T14:55:28.546Z,36.72
2023-05-22T14:58:02.713Z,35.99
2023-05-22T15:00:35.642Z,36.18
2023-05-22T15:03:08.575Z,36.33
2023-05-22T15:05:41.724Z,37.11
2023-05-22T15:08:14.676Z,37.09
2023-05-22T15:10:47.574Z,37.16
2023-05-22T15:13:21.694Z,36.66
2023-05-22T15:15:54.530Z,36.82
2023-05-22T15:18:27.931Z,37.04
2023-05-22T15:21:01.139Z,36.15
2023-05-22T15:23:33.905Z,36.69
2023-05-22T15:26:07.000Z,36.89
2023-05-22T15:28:41.467Z,37.17
2023-05-22T15:31:15.020Z,37.88
2023-05-22T15:33:47.761Z,37.29
2023-05-22T15:36:20.820Z,37.53
2023-05-22T15:38:55.812Z,36.87
2023-05-22T15:41:28.767Z,37.05
2023-05-22T15:44:02.911Z,36.98
2023-05-22T15:46:35.871Z,36.88
2023-05-22T15:49:08.635Z,36.88
2023-05-22T15:51:41.217Z,36.36
2023-05-22T15:54:13.902Z,36.34
2023-05-22T15:56:46.827Z,37.12
2023-05-22T15:59:21.314Z,36.96
2023-05-22T16:01:54.075Z,36.02
2023-05-22T16:04:27.081Z,35.91
2023-05-22T16:06:59.866Z,36.20
2023-05-22T16:09:33.035Z,36.68
2023-05-22T16:12:06.368Z,36.76
2023-05-22T16:14:40.576Z,36.37
2023-05-22T16:17:14.026Z,36.62
2023-05-22T16:19:46.868Z,36.41
2023-05-22T16:22:21.377Z,36.37
2023-05-22T16:24:54.259Z,36.29
2023-05-22T16:27:27.131Z,36.61
2023-05-22T16:30:02.576Z,37.50
2023-05-22T16:32:35.555Z,37.18
2023-05-22T16:35:09.479Z,36.67
2023-05-22T16:37:42.442Z,36.77
2023-05-22T16:40:15.174Z,37.28
2023-05-22T16:42:47.879Z,37.36
2023-05-22T16:45:22.999Z,37.49
2023-05-22T16:47:56.184Z,37.54
2023-05-22T16:50:29.050Z,37.08
2023-05-22T16:53:01.826Z,37.12
2023-05-22T16:55:34.376Z,38.04
2023-05-22T16:58:07.084Z,37.83
2023-05-22T17:00:41.375Z,37.95
2023-05-22T17:03:14.636Z,38.30
2023-05-22T17:05:48.340Z,38.42
2023-05-22T17:08:21.324Z,39.34
2023-05-22T17:10:54.078Z,39.21
2023-05-22T17:13:26.686Z,39.28
2023-05-22T17:16:00.910Z,39.33
2023-05-22T17:18:33.766Z,38.95
2023-05-22T17:21:09.178Z,39.62
2023-05-22T17:23:42.017Z,39.96
2023-05-22T17:26:15.228Z,39.77
2023-05-22T17:28:48.093Z,40.07
2023-05-22T17:31:22.784Z,39.95
2023-05-22T17:33:55.691Z,40.92
2023-05-22T17:36:28.456Z,40.95
2023-05-22T17:39:01.126Z,40.83
2023-05-22T17:41:33.966Z,41.00
2023-05-22T17:44:07.047Z,41.50
2023-05-22T17:46:41.382Z,41.52
2023-05-22T17:49:14.410Z,42.08
2023-05-22T17:51:47.266Z,42.09
2023-05-22T17:54:20.134Z,42.42
2023-05-22T17:56:53.126Z,42.71
2023-05-22T17:59:26.070Z,42.75
2023-05-22T18:02:00.300Z,43.11
2023-05-22T18:04:33.153Z,43.22
2023-05-22T18:07:08.288Z,43.96
2023-05-22T18:09:41.092Z,44.09
2023-05-22T18:12:30.245Z,44.16
2023-05-22T18:15:04.600Z,43.75
2023-05-22T18:17:38.836Z,44.63
2023-05-22T18:20:12.929Z,44.42
2023-05-22T18:22:45.839Z,44.40
2023-05-22T18:25:18.366Z,45.02
2023-05-22T18:27:51.113Z,44.94
2023-05-22T18:30:23.814Z,44.95
2023-05-22T18:32:58.013Z,45.52
2023-05-22T18:35:30.910Z,45.84
2023-05-22T18:38:03.889Z,45.53
2023-05-22T18:40:36.906Z,45.99
2023-05-22T18:43:09.584Z,46.17
2023-05-22T18:45:42.485Z,46.23
2023-05-22T18:48:16.762Z,46.03
2023-05-22T18:50:49.888Z,46.65
2023-05-22T18:53:23.134Z,46.54
2023-05-22T18:55:55.884Z,47.51
2023-05-22T18:58:28.620Z,47.70
2023-05-22T19:01:01.732Z,47.89
2023-05-22T19:03:36.160Z,48.29
2023-05-22T19:06:09.217Z,48.39
2023-05-22T19:08:42.012Z,48.79
2023-05-22T19:11:14.721Z,48.90
2023-05-22T19:13:47.546Z,48.88
2023-05-22T19:16:20.314Z,49.02
2023-05-22T19:18:54.473Z,49.17
2023-05-22T19:21:27.413Z,49.57
2023-05-22T19:24:00.013Z,49.25
2023-05-22T19:26:32.851Z,49.95
2023-05-22T19:29:05.627Z,49.77
2023-05-22T19:31:38.542Z,50.54
2023-05-22T19:34:12.703Z,50.52
2023-05-22T19:36:45.480Z,50.58
2023-05-22T19:39:18.324Z,50.81
2023-05-22T19:41:52.482Z,50.96
2023-05-22T19:44:25.308Z,50.64
2023-05-22T19:46:57.989Z,50.93
2023-05-22T19:49:36.768Z,51.21
2023-05-22T19:52:09.672Z,51.41
2023-05-22T19:54:42.399Z,50.46
2023-05-22T19:57:15.494Z,49.95
2023-05-22T19:59:48.314Z,49.95
2023-05-22T20:02:21.086Z,49.75
2023-05-22T20:04:55.095Z,49.63
2023-05-22T20:07:28.090Z,50.01
2023-05-22T20:10:00.941Z,49.86
2023-05-22T20:12:33.611Z,49.97
2023-05-22T20:15:08.182Z,49.92
2023-05-22T20:17:41.862Z,49.56
2023-05-22T20:20:16.167Z,49.38
2023-05-22T20:22:49.020Z,49.84
2023-05-22T20:25:22.182Z,49.79
2023-05-22T20:27:55.414Z,49.72
2023-05-22T20:30:28.306Z,49.60
2023-05-22T20:33:01.167Z,49.87
2023-05-22T20:35:37.135Z,49.93
2023-05-22T20:38:14.333Z,49.90
2023-05-22T20:40:47.773Z,49.74
2023-05-22T20:43:20.667Z,49.82
2023-05-22T20:45:54.221Z,49.58
2023-05-22T20:48:27.081Z,50.11
2023-05-22T20:51:01.151Z,49.39
2023-05-22T20:53:34.264Z,49.83
2023-05-22T20:56:07.213Z,50.07
2023-05-22T20:58:39.823Z,50.21
2023-05-22T21:01:12.780Z,50.13
2023-05-22T21:03:45.377Z,49.58
2023-05-22T21:06:19.767Z,50.15
2023-05-22T21:08:58.977Z,49.71
2023-05-22T21:11:31.869Z,49.64
2023-05-22T21:14:04.527Z,49.64
2023-05-22T21:16:39.484Z,49.65
2023-05-22T21:19:12.623Z,49.69
2023-05-22T21:21:46.704Z,50.20
2023-05-22T21:24:19.659Z,50.59
2023-05-22T21:26:52.250Z,50.87
2023-05-22T21:29:25.112Z,50.58
2023-05-22T21:31:57.878Z,50.98
2023-05-22T21:34:30.704Z,50.58
2023-05-22T21:37:05.118Z,51.09
2023-05-22T21:39:37.933Z,51.41
2023-05-22T21:42:10.621Z,51.11
2023-05-22T21:44:43.972Z,51.19
2023-05-22T21:47:17.094Z,51.21
2023-05-22T21:49:49.900Z,51.15
2023-05-22T21:52:25.138Z,52.07
2023-05-22T21:54:57.999Z,52.41
2023-05-22T21:57:31.107Z,52.38
2023-05-22T22:00:04.118Z,51.86
2023-05-22T22:02:38.133Z,52.14
2023-05-22T22:05:11.837Z,52.70
2023-05-22T22:07:46.124Z,52.05
2023-05-22T22:10:19.326Z,52.60
2023-05-22T22:12:52.299Z,52.22
2023-05-22T22:15:25.227Z,52.18
2023-05-22T22:18:02.296Z,52.63
2023-05-22T22:20:44.294Z,52.67
2023-05-22T22:23:19.313Z,52.78
2023-05-22T22:25:52.185Z,52.88
2023-05-22T22:28:24.916Z,53.31
2023-05-22T22:30:58.010Z,52.44
2023-05-22T22:33:32.789Z,53.28
2023-05-22T22:36:06.069Z,52.85
2023-05-22T22:38:40.186Z,53.30
2023-05-22T22:41:13.017Z,52.92
2023-05-22T22:43:45.931Z,52.72
2023-05-22T22:46:18.916Z,52.99
2023-05-22T22:48:51.832Z,53.24
2023-05-22T22:51:24.887Z,53.18
2023-05-22T22:53:59.041Z,53.08
2023-05-22T22:56:32.035Z,53.38
2023-05-22T22:59:04.915Z,53.66
2023-05-22T23:01:37.916Z,53.51
2023-05-22T23:04:11.093Z,53.25
2023-05-22T23:06:43.992Z,53.32
2023-05-22T23:09:18.141Z,53.45
2023-05-22T23:11:51.029Z,53.50
2023-05-22T23:14:24.742Z,53.72
2023-05-22T23:16:57.690Z,53.70
2023-05-22T23:19:30.944Z,53.79
2023-05-22T23:22:04.924Z,53.78
2023-05-22T23:24:39.098Z,54.03
2023-05-22T23:27:11.920Z,53.52
2023-05-22T23:29:44.703Z,53.97
2023-05-22T23:32:17.585Z,53.48
2023-05-22T23:34:50.854Z,53.58
2023-05-22T23:37:23.799Z,54.23
2023-05-22T23:39:57.797Z,54.22
2023-05-22T23:42:30.597Z,54.53
2023-05-22T23:45:03.983Z,54.28
2023-05-22T23:47:37.166Z,54.47
2023-05-22T23:50:11.075Z,54.55
2023-05-22T23:52:44.027Z,54.26
2023-05-22T23:55:18.513Z,54.45
2023-05-22T23:57:51.505Z,54.62
